Time;durP1;ratioP1;P1;durP2;ratioP2;P2;SDS_P1;SDS_P2;PMS_P1;PMS_P2;Temp;Humidity;BMP_temperature;BMP_pressure;BME280_temperature;BME280_humidity;BME280_pressure;Samples;Min_cycle;Max_cycle;Signal;HPM_P1;HPM_P2
2021/10/08 00:00:10;;;;;;;81.15;19.98;;;;;;;;;;5045004;28;20088;-64
2021/10/08 00:02:36;;;;;;;117.72;20.00;;;;;;;;;;5053911;28;20055;-65
2021/10/08 00:05:03;;;;;;;97.97;20.92;;;;;;;;;;5047217;28;20597;-63
2021/10/08 00:07:29;;;;;;;105.57;21.02;;;;;;;;;;5054605;28;20504;-65
2021/10/08 00:09:56;;;;;;;67.50;20.92;;;;;;;;;;5057914;28;20055;-64
2021/10/08 00:12:22;;;;;;;93.68;19.65;;;;;;;;;;5048286;28;20492;-64
2021/10/08 00:14:48;;;;;;;87.22;20.00;;;;;;;;;;5065393;28;20056;-65
2021/10/08 00:17:15;;;;;;;70.75;21.08;;;;;;;;;;5047733;28;20051;-64
2021/10/08 00:19:41;;;;;;;101.55;20.52;;;;;;;;;;5060292;28;20691;-65
2021/10/08 00:22:07;;;;;;;82.57;18.85;;;;;;;;;;5041918;28;20052;-64
2021/10/08 00:24:34;;;;;;;122.40;19.00;;;;;;;;;;5051784;28;20615;-65
2021/10/08 00:27:00;;;;;;;75.57;18.20;;;;;;;;;;5056933;28;20049;-65
2021/10/08 00:29:26;;;;;;;63.05;17.55;;;;;;;;;;5051106;28;20057;-65
2021/10/08 00:31:53;;;;;;;60.28;18.80;;;;;;;;;;5051012;28;20052;-65
2021/10/08 00:34:19;;;;;;;28.13;15.80;;;;;;;;;;5048333;28;20048;-65
2021/10/08 00:36:46;;;;;;;41.08;17.02;;;;;;;;;;5048834;28;20162;-65
2021/10/08 00:39:12;;;;;;;32.85;16.70;;;;;;;;;;5048988;28;20053;-65
2021/10/08 00:41:38;;;;;;;116.35;18.00;;;;;;;;;;5047893;28;20048;-64
2021/10/08 00:44:05;;;;;;;86.03;17.45;;;;;;;;;;5055341;28;20059;-65
2021/10/08 00:46:31;;;;;;;67.05;18.88;;;;;;;;;;5042496;28;20059;-65
2021/10/08 00:48:57;;;;;;;99.82;16.38;;;;;;;;;;5052884;28;20133;-64
2021/10/08 00:51:24;;;;;;;91.65;16.67;;;;;;;;;;5036919;28;20053;-64
2021/10/08 00:53:51;;;;;;;87.57;17.02;;;;;;;;;;5053746;28;20135;-64
2021/10/08 00:56:18;;;;;;;108.30;17.45;;;;;;;;;;5048317;28;20048;-66
2021/10/08 00:58:44;;;;;;;98.45;17.30;;;;;;;;;;5058231;28;20049;-64
2021/10/08 01:01:14;;;;;;;66.18;15.77;;;;;;;;;;5048627;28;20067;-63
2021/10/08 01:03:40;;;;;;;70.22;17.40;;;;;;;;;;5048714;28;20076;-64
2021/10/08 01:06:06;;;;;;;109.50;17.33;;;;;;;;;;5050049;28;20049;-64
2021/10/08 01:08:33;;;;;;;58.33;15.15;;;;;;;;;;5054556;28;20056;-64
2021/10/08 01:11:00;;;;;;;77.45;17.70;;;;;;;;;;5058268;28;20096;-64
2021/10/08 01:13:26;;;;;;;78.93;17.17;;;;;;;;;;5053695;28;20101;-64
2021/10/08 01:15:53;;;;;;;59.70;17.40;;;;;;;;;;5054610;28;20053;-62
2021/10/08 01:18:19;;;;;;;83.53;17.75;;;;;;;;;;5051638;28;20130;-64
2021/10/08 01:20:46;;;;;;;103.18;17.98;;;;;;;;;;5052712;28;21061;-64
2021/10/08 01:23:12;;;;;;;75.03;18.65;;;;;;;;;;5058471;28;20044;-62
2021/10/08 01:25:38;;;;;;;56.50;18.55;;;;;;;;;;5038146;28;20322;-63
2021/10/08 01:28:05;;;;;;;60.38;18.50;;;;;;;;;;5060358;28;20048;-64
2021/10/08 01:30:32;;;;;;;119.82;19.83;;;;;;;;;;5031286;28;20064;-64
2021/10/08 01:32:58;;;;;;;122.22;20.63;;;;;;;;;;5056378;28;20060;-64
2021/10/08 01:35:25;;;;;;;83.55;20.80;;;;;;;;;;5043440;28;20045;-63
2021/10/08 01:37:51;;;;;;;66.35;18.55;;;;;;;;;;5052560;28;20051;-64
2021/10/08 01:40:19;;;;;;;66.68;18.55;;;;;;;;;;5043929;28;20066;-64
2021/10/08 01:42:45;;;;;;;94.63;18.77;;;;;;;;;;5027695;28;20052;-63
2021/10/08 01:45:12;;;;;;;80.65;18.50;;;;;;;;;;5035953;28;20060;-64
2021/10/08 01:47:38;;;;;;;44.47;17.25;;;;;;;;;;5046030;28;20048;-64
2021/10/08 01:50:05;;;;;;;75.07;19.08;;;;;;;;;;5046079;28;20059;-62
2021/10/08 01:52:31;;;;;;;54.85;17.42;;;;;;;;;;5054954;28;20049;-62
2021/10/08 01:54:58;;;;;;;83.45;18.70;;;;;;;;;;5023080;28;20421;-64
2021/10/08 01:57:25;;;;;;;89.18;18.65;;;;;;;;;;5053271;28;20538;-64
2021/10/08 01:59:52;;;;;;;89.07;18.63;;;;;;;;;;5030513;28;20041;-63
2021/10/08 02:02:19;;;;;;;67.93;17.75;;;;;;;;;;5053227;28;20047;-64
2021/10/08 02:04:46;;;;;;;156.35;19.25;;;;;;;;;;5044661;28;20484;-64
2021/10/08 02:07:13;;;;;;;138.95;19.33;;;;;;;;;;5052051;28;20569;-63
2021/10/08 02:09:40;;;;;;;95.70;17.40;;;;;;;;;;5051550;28;20064;-63
2021/10/08 02:12:06;;;;;;;119.70;18.42;;;;;;;;;;5045317;28;20051;-64
2021/10/08 02:14:33;;;;;;;121.30;18.27;;;;;;;;;;5045307;28;20049;-64
2021/10/08 02:16:59;;;;;;;93.35;17.13;;;;;;;;;;5046132;28;20457;-62
2021/10/08 02:19:26;;;;;;;76.47;17.05;;;;;;;;;;5054268;28;20046;-64
2021/10/08 02:21:52;;;;;;;66.75;17.35;;;;;;;;;;5045412;28;20066;-64
2021/10/08 02:24:18;;;;;;;47.38;17.52;;;;;;;;;;5051686;28;20388;-63
2021/10/08 02:26:45;;;;;;;76.22;16.33;;;;;;;;;;5047152;28;20048;-64
2021/10/08 02:29:11;;;;;;;70.38;16.00;;;;;;;;;;5021436;28;20745;-64
2021/10/08 02:31:37;;;;;;;49.75;16.55;;;;;;;;;;5048306;28;20442;-64
2021/10/08 02:34:04;;;;;;;69.10;15.50;;;;;;;;;;5055876;28;20060;-64
2021/10/08 02:36:31;;;;;;;68.38;17.05;;;;;;;;;;5040577;28;20489;-64
2021/10/08 02:38:57;;;;;;;70.85;16.45;;;;;;;;;;5043822;28;20049;-64
2021/10/08 02:41:24;;;;;;;74.93;16.90;;;;;;;;;;5050636;28;20045;-63
2021/10/08 02:43:50;;;;;;;88.47;15.65;;;;;;;;;;5051007;28;20081;-64
2021/10/08 02:46:16;;;;;;;115.78;14.82;;;;;;;;;;5045526;28;20134;-64
2021/10/08 02:48:43;;;;;;;71.00;15.68;;;;;;;;;;5052148;28;20049;-64
2021/10/08 02:51:09;;;;;;;76.85;16.63;;;;;;;;;;5046797;28;20569;-64
2021/10/08 02:53:36;;;;;;;50.42;14.88;;;;;;;;;;5041781;28;20200;-63
2021/10/08 02:56:04;;;;;;;50.53;14.55;;;;;;;;;;5040560;28;20045;-62
2021/10/08 02:58:31;;;;;;;47.92;16.17;;;;;;;;;;5050468;28;20048;-63
2021/10/08 03:00:57;;;;;;;76.22;16.25;;;;;;;;;;5049574;28;20044;-64
2021/10/08 03:03:24;;;;;;;103.25;16.35;;;;;;;;;;5041784;28;20059;-63
2021/10/08 03:05:50;;;;;;;126.13;16.00;;;;;;;;;;5046780;28;20056;-64
2021/10/08 03:08:17;;;;;;;54.60;15.02;;;;;;;;;;5039665;28;20126;-64
2021/10/08 03:10:43;;;;;;;70.20;15.25;;;;;;;;;;5050678;28;20523;-64
2021/10/08 03:13:10;;;;;;;65.78;14.70;;;;;;;;;;5046235;28;20128;-64
2021/10/08 03:15:36;;;;;;;77.97;14.45;;;;;;;;;;5048796;28;20508;-64
2021/10/08 03:18:02;;;;;;;76.93;15.90;;;;;;;;;;5042243;28;20263;-64
2021/10/08 03:20:32;;;;;;;43.30;14.35;;;;;;;;;;5040750;28;20551;-64
2021/10/08 03:22:58;;;;;;;38.67;13.48;;;;;;;;;;5057723;28;20052;-63
2021/10/08 03:25:24;;;;;;;107.80;15.65;;;;;;;;;;5043124;28;20051;-64
2021/10/08 03:27:51;;;;;;;55.40;14.23;;;;;;;;;;5058846;28;20052;-64
2021/10/08 03:30:17;;;;;;;54.60;15.10;;;;;;;;;;5053631;28;20051;-64
2021/10/08 03:32:43;;;;;;;50.35;14.30;;;;;;;;;;5046823;28;20060;-63
2021/10/08 03:35:10;;;;;;;69.07;15.82;;;;;;;;;;5056148;28;20056;-64
2021/10/08 03:37:51;;;;;;;92.70;14.38;;;;;;;;;;5047580;28;20478;-63
2021/10/08 03:40:24;;;;;;;58.65;14.40;;;;;;;;;;5063338;28;20079;-64
2021/10/08 03:42:51;;;;;;;49.22;13.52;;;;;;;;;;5055757;28;20056;-64
2021/10/08 03:45:17;;;;;;;79.13;15.02;;;;;;;;;;5053650;28;20076;-64
2021/10/08 03:47:58;;;;;;;38.13;14.82;;;;;;;;;;5047308;28;20056;-63
2021/10/08 03:50:25;;;;;;;62.90;15.40;;;;;;;;;;5059357;28;20052;-63
2021/10/08 03:52:51;;;;;;;50.65;15.40;;;;;;;;;;5045587;28;20053;-63
2021/10/08 03:55:18;;;;;;;74.82;15.23;;;;;;;;;;5053099;28;20068;-64
2021/10/08 03:57:44;;;;;;;53.42;13.18;;;;;;;;;;5043173;28;20053;-64
2021/10/08 04:00:10;;;;;;;37.90;13.65;;;;;;;;;;5028267;28;20057;-64
2021/10/08 04:02:37;;;;;;;49.15;14.07;;;;;;;;;;5042561;28;20056;-62
2021/10/08 04:05:03;;;;;;;42.55;13.70;;;;;;;;;;5051604;28;20063;-63
2021/10/08 04:07:30;;;;;;;94.72;14.77;;;;;;;;;;5061860;28;20048;-64
2021/10/08 04:09:56;;;;;;;46.03;15.45;;;;;;;;;;5061002;28;20518;-63
2021/10/08 04:12:22;;;;;;;43.38;14.32;;;;;;;;;;5043907;28;20052;-64
2021/10/08 04:14:49;;;;;;;86.60;14.10;;;;;;;;;;5054294;28;20860;-63
2021/10/08 04:17:15;;;;;;;39.28;14.93;;;;;;;;;;5036995;28;20045;-63
2021/10/08 04:19:41;;;;;;;33.28;13.57;;;;;;;;;;5059505;28;20598;-64
2021/10/08 04:22:08;;;;;;;58.55;13.52;;;;;;;;;;5048954;28;20048;-63
2021/10/08 04:24:34;;;;;;;56.85;13.38;;;;;;;;;;5059309;28;20599;-62
2021/10/08 04:27:00;;;;;;;46.92;14.80;;;;;;;;;;5047733;28;20462;-62
2021/10/08 04:29:27;;;;;;;43.78;14.45;;;;;;;;;;5046691;28;20494;-63
2021/10/08 04:31:53;;;;;;;64.88;13.10;;;;;;;;;;5048045;28;20080;-63
2021/10/08 04:34:19;;;;;;;57.40;14.15;;;;;;;;;;5047336;28;20059;-64
2021/10/08 04:36:45;;;;;;;84.72;14.90;;;;;;;;;;5055273;28;20064;-63
2021/10/08 04:39:12;;;;;;;66.03;14.48;;;;;;;;;;5045538;28;20056;-64
2021/10/08 04:41:38;;;;;;;58.67;14.38;;;;;;;;;;5055780;28;20548;-64
2021/10/08 04:44:06;;;;;;;28.90;13.10;;;;;;;;;;5054609;28;20044;-64
2021/10/08 04:46:32;;;;;;;42.70;14.17;;;;;;;;;;5045486;28;20541;-63
2021/10/08 04:48:58;;;;;;;53.08;14.38;;;;;;;;;;5052245;28;20343;-63
2021/10/08 04:51:25;;;;;;;68.13;16.58;;;;;;;;;;5043141;28;20478;-62
2021/10/08 04:53:51;;;;;;;79.97;14.07;;;;;;;;;;5051045;28;20277;-63
2021/10/08 04:56:17;;;;;;;77.85;15.07;;;;;;;;;;5035802;28;20274;-64
2021/10/08 04:58:44;;;;;;;40.85;14.52;;;;;;;;;;5049978;28;20044;-64
2021/10/08 05:01:10;;;;;;;61.83;14.40;;;;;;;;;;5053717;28;20053;-63
2021/10/08 05:03:36;;;;;;;72.43;13.73;;;;;;;;;;5042542;28;20040;-64
2021/10/08 05:06:03;;;;;;;50.80;13.18;;;;;;;;;;5062015;28;20428;-64
2021/10/08 05:08:29;;;;;;;60.20;13.77;;;;;;;;;;5037537;28;20243;-63
2021/10/08 05:10:55;;;;;;;48.35;13.10;;;;;;;;;;5034863;28;20052;-62
2021/10/08 05:13:21;;;;;;;41.08;13.73;;;;;;;;;;5053464;28;20048;-64
2021/10/08 05:15:48;;;;;;;67.90;14.23;;;;;;;;;;5054217;28;20526;-63
2021/10/08 05:18:14;;;;;;;45.28;13.35;;;;;;;;;;5049138;28;20434;-64
2021/10/08 05:20:40;;;;;;;62.13;14.73;;;;;;;;;;5049648;28;20361;-64
2021/10/08 05:23:07;;;;;;;102.30;14.55;;;;;;;;;;5050315;28;20052;-64
2021/10/08 05:25:33;;;;;;;69.50;14.30;;;;;;;;;;5047198;28;20082;-62
2021/10/08 05:27:59;;;;;;;68.72;13.70;;;;;;;;;;5032781;28;20048;-63
2021/10/08 05:30:26;;;;;;;123.72;14.35;;;;;;;;;;5056388;28;20409;-64
2021/10/08 05:32:52;;;;;;;88.32;13.07;;;;;;;;;;5044173;28;20048;-62
2021/10/08 05:35:19;;;;;;;53.10;13.68;;;;;;;;;;5057600;28;20052;-64
2021/10/08 05:37:45;;;;;;;69.07;13.85;;;;;;;;;;5029743;28;20070;-64
2021/10/08 05:40:12;;;;;;;44.42;12.15;;;;;;;;;;5058966;28;20154;-63
2021/10/08 05:42:38;;;;;;;93.22;12.23;;;;;;;;;;5046103;28;20044;-64
2021/10/08 05:45:04;;;;;;;85.15;13.52;;;;;;;;;;5057064;28;20061;-62
2021/10/08 05:47:31;;;;;;;110.32;15.00;;;;;;;;;;5044345;28;20056;-62
2021/10/08 05:49:57;;;;;;;144.68;15.45;;;;;;;;;;5048333;28;20049;-62
2021/10/08 05:52:23;;;;;;;115.40;14.52;;;;;;;;;;5044512;28;20045;-60
2021/10/08 05:54:50;;;;;;;126.32;14.25;;;;;;;;;;5048272;28;20044;-63
2021/10/08 05:57:16;;;;;;;56.42;14.85;;;;;;;;;;5061740;28;20128;-64
2021/10/08 05:59:44;;;;;;;100.53;16.98;;;;;;;;;;5051274;28;20054;-64
2021/10/08 06:02:11;;;;;;;89.85;17.45;;;;;;;;;;5060321;28;20051;-63
2021/10/08 06:04:37;;;;;;;132.77;13.77;;;;;;;;;;5054820;28;20060;-63
2021/10/08 06:07:04;;;;;;;34.88;12.55;;;;;;;;;;5043956;28;20056;-64
2021/10/08 06:09:30;;;;;;;61.15;12.48;;;;;;;;;;5057697;28;20087;-64
2021/10/08 06:11:56;;;;;;;88.53;14.55;;;;;;;;;;5051062;28;20151;-64
2021/10/08 06:14:22;;;;;;;107.75;14.93;;;;;;;;;;5061344;28;20166;-63
2021/10/08 06:16:49;;;;;;;47.08;13.73;;;;;;;;;;5034999;28;20592;-64
2021/10/08 06:19:15;;;;;;;68.13;13.48;;;;;;;;;;5051045;28;20053;-64
2021/10/08 06:21:41;;;;;;;71.05;13.45;;;;;;;;;;5028499;28;20052;-64
2021/10/08 06:24:08;;;;;;;108.38;14.23;;;;;;;;;;5032666;28;20048;-64
2021/10/08 06:26:34;;;;;;;178.43;15.25;;;;;;;;;;5053084;28;20048;-64
2021/10/08 06:29:01;;;;;;;100.97;14.02;;;;;;;;;;5050763;28;20047;-64
2021/10/08 06:31:27;;;;;;;114.63;15.35;;;;;;;;;;5043613;28;20048;-64
2021/10/08 06:33:53;;;;;;;57.00;14.70;;;;;;;;;;5045755;28;20091;-62
2021/10/08 06:36:20;;;;;;;83.80;14.15;;;;;;;;;;5040418;28;20509;-62
2021/10/08 06:38:46;;;;;;;69.25;15.10;;;;;;;;;;5055684;28;20494;-63
2021/10/08 06:41:12;;;;;;;59.53;13.43;;;;;;;;;;5038848;28;20283;-62
2021/10/08 06:43:39;;;;;;;92.63;14.32;;;;;;;;;;5058272;28;20048;-63
2021/10/08 06:46:05;;;;;;;78.30;13.13;;;;;;;;;;5032709;28;20055;-64
2021/10/08 06:48:31;;;;;;;78.05;12.23;;;;;;;;;;5050657;28;20048;-64
2021/10/08 06:50:58;;;;;;;107.07;13.13;;;;;;;;;;5042456;28;20417;-63
2021/10/08 06:53:24;;;;;;;112.35;15.25;;;;;;;;;;5047973;28;20055;-63
2021/10/08 06:55:51;;;;;;;65.63;13.68;;;;;;;;;;5042862;28;20086;-62
2021/10/08 06:58:17;;;;;;;57.42;13.30;;;;;;;;;;5047961;28;20211;-64
2021/10/08 07:00:43;;;;;;;91.22;13.50;;;;;;;;;;5036522;28;20048;-64
2021/10/08 07:03:10;;;;;;;58.00;13.75;;;;;;;;;;5044004;28;20059;-63
2021/10/08 07:05:36;;;;;;;103.72;13.90;;;;;;;;;;5042854;28;20509;-64
2021/10/08 07:08:03;;;;;;;70.88;13.88;;;;;;;;;;5056893;28;20040;-63
2021/10/08 07:10:30;;;;;;;139.27;14.18;;;;;;;;;;5044480;28;20365;-64
2021/10/08 07:12:56;;;;;;;74.88;13.10;;;;;;;;;;5060406;28;20351;-64
2021/10/08 07:15:23;;;;;;;81.18;14.93;;;;;;;;;;5031667;28;20048;-64
2021/10/08 07:17:51;;;;;;;81.97;13.73;;;;;;;;;;5059922;28;20798;-62
2021/10/08 07:20:22;;;;;;;65.25;13.30;;;;;;;;;;5035487;28;20524;-64
2021/10/08 07:22:49;;;;;;;96.88;13.10;;;;;;;;;;5059664;28;20049;-65
2021/10/08 07:25:15;;;;;;;76.65;13.27;;;;;;;;;;5043230;28;20056;-63
2021/10/08 07:27:42;;;;;;;68.72;13.63;;;;;;;;;;5050773;28;20066;-62
2021/10/08 07:30:09;;;;;;;73.47;13.98;;;;;;;;;;5038982;28;20701;-63
2021/10/08 07:32:35;;;;;;;50.25;12.13;;;;;;;;;;5049721;28;20508;-65
2021/10/08 07:35:02;;;;;;;69.38;14.88;;;;;;;;;;5043723;28;20144;-65
2021/10/08 07:37:29;;;;;;;73.82;15.07;;;;;;;;;;5045625;28;20062;-66
2021/10/08 07:39:56;;;;;;;110.40;17.15;;;;;;;;;;5050197;28;20056;-63
2021/10/08 07:42:23;;;;;;;50.67;13.63;;;;;;;;;;5050071;28;20071;-63
2021/10/08 07:44:49;;;;;;;33.10;13.95;;;;;;;;;;5046260;28;20088;-63
2021/10/08 07:47:16;;;;;;;44.00;13.73;;;;;;;;;;5056891;28;20049;-64
2021/10/08 07:49:43;;;;;;;55.85;14.65;;;;;;;;;;5034902;28;20064;-62
2021/10/08 07:52:09;;;;;;;45.10;13.48;;;;;;;;;;5057531;28;20082;-63
2021/10/08 07:54:36;;;;;;;32.08;13.45;;;;;;;;;;5033878;28;20499;-64
2021/10/08 07:57:02;;;;;;;87.93;14.73;;;;;;;;;;5052371;28;20056;-62
2021/10/08 07:59:29;;;;;;;70.95;14.68;;;;;;;;;;5046770;28;20525;-63
2021/10/08 08:01:56;;;;;;;36.13;14.55;;;;;;;;;;5047545;28;20079;-64
2021/10/08 08:04:22;;;;;;;101.88;15.57;;;;;;;;;;5044123;28;20465;-64
2021/10/08 08:06:51;;;;;;;42.17;14.88;;;;;;;;;;5050728;28;20043;-62
2021/10/08 08:09:17;;;;;;;35.63;13.65;;;;;;;;;;5053286;28;20077;-63
2021/10/08 08:11:44;;;;;;;35.55;12.25;;;;;;;;;;5046014;28;20040;-64
2021/10/08 08:14:10;;;;;;;68.20;14.88;;;;;;;;;;5043574;28;20049;-64
2021/10/08 08:16:36;;;;;;;34.35;14.52;;;;;;;;;;5063470;28;20600;-64
2021/10/08 08:19:03;;;;;;;34.47;14.65;;;;;;;;;;5042984;28;20561;-64
2021/10/08 08:21:29;;;;;;;42.88;15.27;;;;;;;;;;5061454;28;20064;-64
2021/10/08 08:23:55;;;;;;;33.72;14.00;;;;;;;;;;5045896;28;20048;-64
2021/10/08 08:26:22;;;;;;;46.63;14.88;;;;;;;;;;5055680;28;20499;-63
2021/10/08 08:28:48;;;;;;;71.60;15.02;;;;;;;;;;5045433;28;20053;-64
2021/10/08 08:31:15;;;;;;;40.72;13.77;;;;;;;;;;5055399;28;20277;-63
2021/10/08 08:33:41;;;;;;;47.65;13.65;;;;;;;;;;5050535;28;20045;-64
2021/10/08 08:36:08;;;;;;;58.65;13.48;;;;;;;;;;5041822;28;20048;-61
2021/10/08 08:38:34;;;;;;;26.45;13.77;;;;;;;;;;5053808;28;20082;-63
2021/10/08 08:41:01;;;;;;;28.55;16.20;;;;;;;;;;5042026;28;20504;-64
2021/10/08 08:43:28;;;;;;;31.67;15.98;;;;;;;;;;5052831;28;20163;-63
2021/10/08 08:45:55;;;;;;;26.80;15.40;;;;;;;;;;5046332;28;20056;-63
2021/10/08 08:48:21;;;;;;;31.38;14.30;;;;;;;;;;5052816;28;20064;-64
2021/10/08 08:50:48;;;;;;;42.35;15.32;;;;;;;;;;5051088;28;20044;-63
2021/10/08 08:53:16;;;;;;;63.13;16.20;;;;;;;;;;5034798;28;20072;-64
2021/10/08 08:55:43;;;;;;;38.30;16.15;;;;;;;;;;5050758;28;20044;-64
2021/10/08 08:58:09;;;;;;;46.67;15.02;;;;;;;;;;5054852;28;20427;-64
2021/10/08 09:00:36;;;;;;;38.05;15.77;;;;;;;;;;5057472;28;20048;-64
2021/10/08 09:03:04;;;;;;;32.53;16.20;;;;;;;;;;5056835;28;20133;-64
2021/10/08 09:05:33;;;;;;;38.42;16.77;;;;;;;;;;5033464;28;20136;-64
2021/10/08 09:08:04;;;;;;;35.13;16.30;;;;;;;;;;5055014;28;20044;-64
2021/10/08 09:10:32;;;;;;;41.05;21.10;;;;;;;;;;5049709;28;20508;-64
2021/10/08 09:12:58;;;;;;;42.42;21.23;;;;;;;;;;5038385;28;20496;-64
2021/10/08 09:15:26;;;;;;;46.72;22.15;;;;;;;;;;5044459;28;20497;-62
2021/10/08 09:18:09;;;;;;;52.80;22.83;;;;;;;;;;5062923;28;20044;-65
2021/10/08 09:20:36;;;;;;;60.65;24.13;;;;;;;;;;5042489;28;20088;-63
2021/10/08 09:23:03;;;;;;;46.85;22.58;;;;;;;;;;5044409;28;20498;-64
2021/10/08 09:25:34;;;;;;;51.75;25.25;;;;;;;;;;5054163;28;20084;-64
2021/10/08 09:28:03;;;;;;;54.92;25.13;;;;;;;;;;5052554;28;20132;-64
2021/10/08 09:30:39;;;;;;;49.97;25.58;;;;;;;;;;5059796;28;20052;-64
2021/10/08 09:33:09;;;;;;;42.38;22.40;;;;;;;;;;5039218;28;20493;-64
2021/10/08 09:35:36;;;;;;;52.95;27.10;;;;;;;;;;5055101;28;20048;-64
2021/10/08 09:38:06;;;;;;;42.22;20.20;;;;;;;;;;5041078;28;20064;-64
2021/10/08 09:40:45;;;;;;;58.80;29.48;;;;;;;;;;5056334;28;20056;-65
2021/10/08 09:43:32;;;;;;;56.85;28.23;;;;;;;;;;5022293;28;20056;-64
2021/10/08 09:45:59;;;;;;;60.53;29.77;;;;;;;;;;5035965;28;20056;-64
2021/10/08 09:48:34;;;;;;;62.45;28.73;;;;;;;;;;5025008;28;20227;-64
2021/10/08 09:51:11;;;;;;;60.80;28.02;;;;;;;;;;5024276;28;20576;-65
2021/10/08 09:53:52;;;;;;;66.38;30.70;;;;;;;;;;5025673;28;20045;-64
2021/10/08 09:56:27;;;;;;;63.67;30.45;;;;;;;;;;5025359;28;20418;-64
2021/10/08 09:58:54;;;;;;;62.97;26.83;;;;;;;;;;5027653;28;20067;-64
2021/10/08 10:01:23;;;;;;;71.80;32.08;;;;;;;;;;5029348;28;20240;-64
2021/10/08 10:03:51;;;;;;;75.32;31.33;;;;;;;;;;5022415;28;20079;-65
2021/10/08 10:06:19;;;;;;;66.75;29.80;;;;;;;;;;5033302;28;20045;-64
2021/10/08 10:08:45;;;;;;;67.57;32.10;;;;;;;;;;5026959;28;20059;-64
2021/10/08 10:11:11;;;;;;;71.55;31.10;;;;;;;;;;5036787;28;20049;-64
2021/10/08 10:13:40;;;;;;;65.53;30.30;;;;;;;;;;5020644;28;20745;-65
2021/10/08 10:16:07;;;;;;;63.50;30.30;;;;;;;;;;5032186;28;20124;-64
2021/10/08 10:18:34;;;;;;;62.70;28.58;;;;;;;;;;5022412;28;20046;-64
2021/10/08 10:21:01;;;;;;;64.55;29.83;;;;;;;;;;5038759;28;20060;-65
2021/10/08 10:23:28;;;;;;;63.17;29.95;;;;;;;;;;5031008;28;20077;-64
2021/10/08 10:25:54;;;;;;;63.42;30.13;;;;;;;;;;5040445;28;20048;-64
2021/10/08 10:28:21;;;;;;;63.83;30.88;;;;;;;;;;5008188;28;20136;-64
2021/10/08 10:30:49;;;;;;;61.60;30.35;;;;;;;;;;5023268;28;20041;-64
2021/10/08 10:33:16;;;;;;;68.78;32.70;;;;;;;;;;5020458;28;20056;-66
2021/10/08 10:35:44;;;;;;;72.55;32.35;;;;;;;;;;5030478;28;20048;-64
2021/10/08 10:38:20;;;;;;;64.57;31.05;;;;;;;;;;5019926;28;20055;-64
2021/10/08 10:40:47;;;;;;;69.47;31.02;;;;;;;;;;5032655;28;20493;-66
2021/10/08 10:43:13;;;;;;;67.78;31.70;;;;;;;;;;5025846;28;20041;-65
2021/10/08 10:46:05;;;;;;;56.40;28.30;;;;;;;;;;5034810;28;20049;-65
2021/10/08 10:48:33;;;;;;;66.90;33.03;;;;;;;;;;5022805;28;20603;-66
2021/10/08 10:51:10;;;;;;;65.43;30.98;;;;;;;;;;5032979;28;20053;-66
2021/10/08 10:53:48;;;;;;;69.55;33.15;;;;;;;;;;5018635;28;20045;-66
2021/10/08 10:56:33;;;;;;;67.28;33.17;;;;;;;;;;5042161;28;20386;-64
2021/10/08 10:59:19;;;;;;;65.13;31.60;;;;;;;;;;5034225;28;20463;-64
2021/10/08 11:04:31;;;;;;;63.90;31.38;;;;;;;;;;5050631;28;20661;-65
2021/10/08 11:07:11;;;;;;;62.78;32.22;;;;;;;;;;5053919;28;20147;-67
2021/10/08 11:09:39;;;;;;;61.70;30.98;;;;;;;;;;5049617;28;20045;-68
2021/10/08 11:12:24;;;;;;;59.33;30.53;;;;;;;;;;5046661;28;20049;-66
2021/10/08 11:15:10;;;;;;;61.70;30.63;;;;;;;;;;5033293;28;20296;-65
2021/10/08 11:17:47;;;;;;;49.53;26.58;;;;;;;;;;5043269;28;20053;-65
2021/10/08 11:20:42;;;;;;;63.38;31.73;;;;;;;;;;5051037;28;20052;-65
2021/10/08 11:23:18;;;;;;;62.47;32.25;;;;;;;;;;5052513;28;20063;-65
2021/10/08 11:25:46;;;;;;;59.05;31.15;;;;;;;;;;5050506;28;20059;-65
2021/10/08 11:28:14;;;;;;;56.72;31.42;;;;;;;;;;5050257;28;20053;-65
2021/10/08 11:30:41;;;;;;;59.97;31.40;;;;;;;;;;5056193;28;20055;-65
2021/10/08 11:33:07;;;;;;;53.63;28.92;;;;;;;;;;5043750;28;20055;-65
2021/10/08 11:35:34;;;;;;;48.72;25.65;;;;;;;;;;5059965;28;20741;-65
2021/10/08 11:38:02;;;;;;;50.17;27.38;;;;;;;;;;5045979;28;20530;-65
2021/10/08 11:40:34;;;;;;;47.30;27.13;;;;;;;;;;5046927;28;20421;-65
2021/10/08 11:43:04;;;;;;;46.97;24.77;;;;;;;;;;5049332;28;20060;-65
2021/10/08 11:45:51;;;;;;;47.35;26.48;;;;;;;;;;5053725;28;20048;-65
2021/10/08 11:48:24;;;;;;;47.40;26.03;;;;;;;;;;5057655;28;20079;-65
2021/10/08 11:51:06;;;;;;;46.05;25.38;;;;;;;;;;5041943;28;20535;-65
2021/10/08 11:53:39;;;;;;;42.03;24.25;;;;;;;;;;5048753;28;20052;-65
2021/10/08 11:56:12;;;;;;;37.75;21.17;;;;;;;;;;5045491;28;20057;-65
2021/10/08 11:58:38;;;;;;;37.67;22.25;;;;;;;;;;5056876;28;20052;-65
2021/10/08 12:01:04;;;;;;;36.75;20.80;;;;;;;;;;5053420;28;20420;-65
2021/10/08 12:03:38;;;;;;;36.63;20.00;;;;;;;;;;5052217;28;20158;-65
2021/10/08 12:06:06;;;;;;;30.58;18.38;;;;;;;;;;5047842;28;20049;-65
2021/10/08 12:08:35;;;;;;;27.90;16.13;;;;;;;;;;5047605;28;20056;-66
2021/10/08 12:11:03;;;;;;;30.48;16.00;;;;;;;;;;5065030;28;20412;-65
2021/10/08 12:13:35;;;;;;;23.58;14.50;;;;;;;;;;5053993;28;20812;-65
2021/10/08 12:16:02;;;;;;;24.83;13.73;;;;;;;;;;5051835;28;20310;-65
2021/10/08 12:18:28;;;;;;;22.50;13.07;;;;;;;;;;5052418;28;20105;-66
2021/10/08 12:21:12;;;;;;;16.67;11.48;;;;;;;;;;5043799;28;20049;-65
2021/10/08 12:23:38;;;;;;;15.88;8.90;;;;;;;;;;5055030;28;20175;-66
2021/10/08 12:26:05;;;;;;;12.70;7.85;;;;;;;;;;5058949;28;20059;-66
2021/10/08 12:28:31;;;;;;;12.00;7.80;;;;;;;;;;5058788;28;20565;-66
2021/10/08 12:31:02;;;;;;;11.20;6.68;;;;;;;;;;5045354;28;20044;-65
2021/10/08 12:33:30;;;;;;;9.90;5.53;;;;;;;;;;5053457;28;20095;-66
2021/10/08 12:36:15;;;;;;;8.10;5.50;;;;;;;;;;5042003;28;20489;-66
2021/10/08 12:38:50;;;;;;;10.18;6.00;;;;;;;;;;5059562;28;20052;-65
2021/10/08 12:41:29;;;;;;;10.65;7.10;;;;;;;;;;5044158;28;20059;-66
2021/10/08 12:43:55;;;;;;;;;;;;;;;;;;5061944;28;20055;-65
2021/10/08 12:46:22;;;;;;;8.73;6.00;;;;;;;;;;5039908;28;20277;-66
2021/10/08 12:48:58;;;;;;;8.87;5.23;;;;;;;;;;5054303;28;20067;-66
2021/10/08 12:51:24;;;;;;;9.90;4.97;;;;;;;;;;5044037;28;20068;-65
2021/10/08 12:54:17;;;;;;;9.10;5.70;;;;;;;;;;5043975;28;20044;-65
2021/10/08 12:56:44;;;;;;;12.57;6.60;;;;;;;;;;5051672;28;20056;-65
2021/10/08 12:59:11;;;;;;;10.82;7.45;;;;;;;;;;5053527;28;20404;-66
2021/10/08 13:01:51;;;;;;;13.65;8.23;;;;;;;;;;5052444;28;20056;-65
2021/10/08 13:04:19;;;;;;;14.15;7.68;;;;;;;;;;5047267;28;20135;-66
2021/10/08 13:06:46;;;;;;;14.75;9.50;;;;;;;;;;5062322;28;20060;-66
2021/10/08 13:09:15;;;;;;;14.57;9.97;;;;;;;;;;5052022;28;20052;-65
2021/10/08 13:11:43;;;;;;;18.17;9.75;;;;;;;;;;5049016;28;20493;-65
2021/10/08 13:14:16;;;;;;;15.82;10.60;;;;;;;;;;5061273;28;20049;-66
2021/10/08 13:16:43;;;;;;;16.90;11.20;;;;;;;;;;5062012;28;20059;-66
2021/10/08 13:19:25;;;;;;;17.75;10.60;;;;;;;;;;5054038;28;20056;-65
2021/10/08 13:21:51;;;;;;;20.58;12.93;;;;;;;;;;5036696;28;20048;-65
2021/10/08 13:24:18;;;;;;;20.17;12.10;;;;;;;;;;5060691;28;20312;-65
2021/10/08 13:26:44;;;;;;;20.02;11.90;;;;;;;;;;5049211;28;20041;-65
2021/10/08 13:29:11;;;;;;;15.70;10.82;;;;;;;;;;5054243;28;20054;-64
2021/10/08 13:31:37;;;;;;;16.90;11.82;;;;;;;;;;5041430;28;20049;-65
2021/10/08 13:34:03;;;;;;;17.63;11.35;;;;;;;;;;5045457;28;20052;-64
2021/10/08 13:36:30;;;;;;;20.73;12.18;;;;;;;;;;5043439;28;20066;-65
2021/10/08 13:38:56;;;;;;;16.02;10.30;;;;;;;;;;5031139;28;20525;-65
2021/10/08 13:41:22;;;;;;;17.27;11.85;;;;;;;;;;5046840;28;20048;-65
2021/10/08 13:43:48;;;;;;;17.33;10.77;;;;;;;;;;5047611;28;20056;-65
2021/10/08 13:46:15;;;;;;;17.88;11.65;;;;;;;;;;5042673;28;20543;-65
2021/10/08 13:48:41;;;;;;;16.33;11.40;;;;;;;;;;5059135;28;20571;-65
2021/10/08 13:51:15;;;;;;;20.98;12.57;;;;;;;;;;5045924;28;20577;-65
2021/10/08 13:53:42;;;;;;;19.33;12.20;;;;;;;;;;5055750;28;20056;-65
2021/10/08 13:56:10;;;;;;;17.63;11.20;;;;;;;;;;5037315;28;20052;-65
2021/10/08 13:58:36;;;;;;;15.43;10.65;;;;;;;;;;5054159;28;20057;-65
2021/10/08 14:01:03;;;;;;;14.65;10.80;;;;;;;;;;5060463;28;20055;-65
2021/10/08 14:11:20;;;;;;;12.90;10.25;;;;;;;;;;5045556;28;20452;-65
2021/10/08 14:13:46;;;;;;;13.93;10.65;;;;;;;;;;5037205;28;20052;-64
2021/10/08 14:16:13;;;;;;;15.70;10.70;;;;;;;;;;5047282;28;20141;-65
2021/10/08 14:18:39;;;;;;;16.42;10.38;;;;;;;;;;5047325;28;20068;-65
2021/10/08 14:21:06;;;;;;;14.07;10.47;;;;;;;;;;5047759;28;20052;-64
2021/10/08 14:23:33;;;;;;;19.00;10.68;;;;;;;;;;5047438;28;20049;-65
2021/10/08 14:25:59;;;;;;;15.63;10.27;;;;;;;;;;5040889;28;20497;-65
2021/10/08 14:28:25;;;;;;;14.68;10.10;;;;;;;;;;5048199;28;20052;-65
2021/10/08 14:30:52;;;;;;;16.13;10.82;;;;;;;;;;5048284;28;20048;-65